Time;durP1;ratioP1;P1;durP2;ratioP2;P2;SDS_P1;SDS_P2;PMS_P1;PMS_P2;Temp;Humidity;BMP_temperature;BMP_pressure;BME280_temperature;BME280_humidity;BME280_pressure;Samples;Min_cycle;Max_cycle;Signal;HPM_P1;HPM_P2
2022/09/24 00:00:18;;;;;;;36.80;27.38;;;13.30;99.90;;;;;;5036628;28;20092;-96
2022/09/24 00:02:45;;;;;;;36.45;29.00;;;13.70;99.90;;;;;;5055178;28;20049;-96
2022/09/24 00:05:15;;;;;;;34.83;27.92;;;13.70;99.90;;;;;;5055258;28;20049;-96
2022/09/24 00:07:53;;;;;;;33.55;27.08;;;13.70;99.90;;;;;;5054316;28;20032;-96
2022/09/24 00:10:41;;;;;;;34.20;27.80;;;13.20;99.90;;;;;;5059958;28;20079;-96
2022/09/24 00:13:11;;;;;;;37.03;28.25;;;13.10;99.90;;;;;;5058382;28;20025;-96
2022/09/24 00:15:47;;;;;;;40.30;31.70;;;14.30;99.90;;;;;;5042685;28;20048;-96
2022/09/24 00:18:14;;;;;;;38.13;29.55;;;12.90;99.90;;;;;;5025474;28;20040;-96
2022/09/24 00:20:42;;;;;;;36.22;28.92;;;12.80;99.90;;;;;;5055450;28;20024;-96
2022/09/24 00:23:09;;;;;;;37.53;29.83;;;14.10;99.90;;;;;;5057875;28;20088;-96
2022/09/24 00:28:32;;;;;;;41.40;29.48;;;13.70;99.90;;;;;;5078047;28;20029;-96
2022/09/24 00:31:02;;;;;;;38.58;29.80;;;12.80;99.90;;;;;;5044375;28;20088;-96
2022/09/24 00:33:39;;;;;;;44.65;34.17;;;12.90;99.90;;;;;;5057320;28;20025;-95
2022/09/24 00:36:07;;;;;;;41.42;30.77;;;13.70;99.90;;;;;;5049699;28;20053;-96
2022/09/24 00:38:33;;;;;;;44.75;32.20;;;14.50;99.90;;;;;;5032680;28;20049;-96
2022/09/24 00:41:03;;;;;;;41.67;32.15;;;14.00;99.90;;;;;;5032936;28;20067;-96
2022/09/24 00:43:36;;;;;;;43.70;32.75;;;13.70;99.90;;;;;;5053521;28;20067;-96
2022/09/24 00:46:36;;;;;;;52.33;36.10;;;13.70;99.90;;;;;;5034435;28;20457;-96
2022/09/24 00:49:13;;;;;;;43.10;33.65;;;13.90;99.90;;;;;;5049964;28;20037;-96
2022/09/24 00:51:44;;;;;;;51.47;35.00;;;13.60;99.90;;;;;;5022308;28;20064;-96
2022/09/24 00:54:25;;;;;;;44.28;34.25;;;12.70;99.90;;;;;;5033174;28;20106;-96
2022/09/24 00:56:53;;;;;;;52.25;37.72;;;13.60;99.90;;;;;;5043636;28;20087;-96
2022/09/24 00:59:22;;;;;;;47.00;36.83;;;13.60;99.90;;;;;;5050530;28;20021;-96
2022/09/24 01:01:51;;;;;;;48.05;36.75;;;13.70;99.90;;;;;;5047834;28;20091;-96
2022/09/24 01:04:20;;;;;;;53.22;36.35;;;14.00;99.90;;;;;;5047834;28;20041;-96
2022/09/24 01:06:49;;;;;;;47.83;37.05;;;13.60;99.90;;;;;;5018920;28;20041;-96
2022/09/24 01:09:22;;;;;;;50.17;37.88;;;12.80;99.90;;;;;;5035853;28;20075;-96
2022/09/24 01:12:09;;;;;;;45.95;36.05;;;13.60;99.90;;;;;;5035472;28;20043;-96
2022/09/24 01:15:03;;;;;;;46.58;36.97;;;13.60;99.90;;;;;;5033351;28;20041;-96
2022/09/24 01:17:46;;;;;;;48.17;37.67;;;13.00;99.90;;;;;;5056151;28;20079;-96
2022/09/24 01:21:00;;;;;;;51.63;39.95;;;13.30;99.90;;;;;;5071351;28;20045;-96
2022/09/24 01:23:35;;;;;;;54.50;39.65;;;13.70;99.90;;;;;;5026296;28;20053;-96
2022/09/24 01:26:32;;;;;;;54.75;36.20;;;13.70;99.90;;;;;;5050592;28;20037;-96
2022/09/24 01:29:20;;;;;;;45.95;38.58;;;13.40;99.90;;;;;;5056459;28;20067;-96
2022/09/24 01:32:04;;;;;;;48.35;38.45;;;13.70;99.90;;;;;;5037288;28;20052;-96
2022/09/24 01:34:45;;;;;;;57.05;39.95;;;13.70;99.90;;;;;;5055101;28;20067;-96
2022/09/24 01:37:21;;;;;;;50.03;40.03;;;13.80;99.90;;;;;;5051348;28;20360;-96
2022/09/24 01:39:52;;;;;;;53.75;40.33;;;13.70;99.90;;;;;;5037119;28;20494;-96
2022/09/24 01:42:24;;;;;;;54.25;42.85;;;12.90;99.90;;;;;;5036383;28;20048;-96
2022/09/24 01:44:52;;;;;;;52.35;42.70;;;13.30;99.90;;;;;;5034013;28;20056;-96
2022/09/24 01:47:28;;;;;;;54.13;43.42;;;13.80;99.90;;;;;;5037857;28;20041;-96
2022/09/24 01:49:54;;;;;;;56.60;43.80;;;13.70;99.90;;;;;;5061449;28;20093;-96
2022/09/24 01:52:30;;;;;;;62.95;44.65;;;13.80;99.90;;;;;;5061774;28;20044;-96
2022/09/24 01:55:00;;;;;;;55.55;42.17;;;14.10;99.90;;;;;;5043127;28;20025;-96
2022/09/24 01:57:39;;;;;;;56.83;44.30;;;13.80;99.90;;;;;;5059836;28;20036;-96
2022/09/24 02:00:14;;;;;;;64.90;43.58;;;13.80;99.90;;;;;;5042008;28;20060;-96
2022/09/24 02:02:55;;;;;;;54.97;43.25;;;13.00;99.90;;;;;;5060294;28;20089;-96
2022/09/24 02:05:29;;;;;;;54.05;40.40;;;13.80;99.90;;;;;;5055352;28;20051;-96
2022/09/24 02:08:24;;;;;;;54.35;42.65;;;13.90;99.90;;;;;;5038108;28;20064;-96
2022/09/24 02:11:10;;;;;;;53.55;42.63;;;12.70;99.90;;;;;;5047626;28;20049;-96
2022/09/24 02:14:07;;;;;;;59.50;45.08;;;13.80;99.90;;;;;;5034586;28;20041;-95
2022/09/24 02:16:49;;;;;;;52.85;43.58;;;13.90;99.90;;;;;;5050865;28;20053;-95
2022/09/24 02:19:28;;;;;;;61.30;47.38;;;14.10;99.90;;;;;;5035910;28;20051;-95
2022/09/24 02:21:59;;;;;;;58.92;45.67;;;14.30;99.90;;;;;;5054954;28;20045;-96
2022/09/24 02:24:48;;;;;;;61.53;47.28;;;14.80;99.90;;;;;;5036278;28;20037;-96
2022/09/24 02:27:17;;;;;;;56.10;44.35;;;13.90;99.90;;;;;;5020647;28;20161;-96
2022/09/24 02:29:45;;;;;;;59.03;46.65;;;13.90;99.90;;;;;;5048760;28;20048;-96
2022/09/24 02:32:16;;;;;;;55.17;44.15;;;13.90;99.90;;;;;;5048620;28;20096;-96
2022/09/24 02:34:50;;;;;;;53.83;44.47;;;13.90;99.90;;;;;;5033858;28;20154;-95
2022/09/24 02:37:16;;;;;;;53.63;43.80;;;13.90;99.90;;;;;;5033517;28;20049;-96
2022/09/24 02:39:43;;;;;;;59.40;46.85;;;13.20;99.90;;;;;;5018644;28;20064;-96
2022/09/24 02:42:18;;;;;;;52.85;43.15;;;13.90;99.90;;;;;;5049596;28;20076;-96
2022/09/24 02:44:46;;;;;;;65.38;45.47;;;13.20;99.90;;;;;;5032197;28;20068;-96
2022/09/24 02:47:13;;;;;;;55.42;45.05;;;13.70;99.90;;;;;;5034265;28;20053;-96
2022/09/24 02:49:40;;;;;;;50.97;40.85;;;13.80;99.90;;;;;;5018315;28;20128;-96
2022/09/24 02:52:07;;;;;;;51.33;40.38;;;13.90;99.90;;;;;;5035112;28;20084;-96
2022/09/24 02:54:35;;;;;;;48.67;41.35;;;13.10;99.90;;;;;;5033568;28;20103;-96
2022/09/24 02:57:00;;;;;;;54.20;43.58;;;13.90;99.90;;;;;;5053015;28;20079;-96
2022/09/24 02:59:28;;;;;;;53.03;42.75;;;14.50;99.90;;;;;;5047090;28;20040;-96
2022/09/24 03:02:00;;;;;;;54.30;42.75;;;13.90;99.90;;;;;;5065077;28;20043;-96
2022/09/24 03:04:32;;;;;;;54.80;43.67;;;14.60;99.90;;;;;;5066007;28;20148;-96
2022/09/24 03:06:59;;;;;;;52.55;41.65;;;14.60;99.90;;;;;;5018637;28;20048;-96
2022/09/24 03:09:25;;;;;;;47.78;39.85;;;13.90;99.90;;;;;;5032767;28;20056;-96
2022/09/24 03:11:51;;;;;;;45.90;37.08;;;13.90;99.90;;;;;;5016211;28;20596;-96
2022/09/24 03:14:28;;;;;;;47.95;38.47;;;14.00;99.90;;;;;;5035845;28;20052;-96
2022/09/24 03:16:55;;;;;;;44.63;36.67;;;13.70;99.90;;;;;;5044226;28;20500;-96
2022/09/24 03:19:21;;;;;;;46.78;35.20;;;13.90;99.90;;;;;;5034062;28;20053;-96
2022/09/24 03:21:53;;;;;;;40.65;34.80;;;14.00;99.90;;;;;;5053023;28;20052;-95
2022/09/24 03:24:20;;;;;;;44.72;34.80;;;13.40;99.90;;;;;;5036108;28;20072;-96
2022/09/24 03:26:46;;;;;;;37.50;32.85;;;14.00;99.90;;;;;;5011364;28;20042;-96
2022/09/24 03:29:12;;;;;;;35.10;29.30;;;14.00;99.90;;;;;;4996019;28;20106;-96
2022/09/24 03:31:38;;;;;;;37.22;30.23;;;13.60;99.90;;;;;;4996003;28;20042;-96
2022/09/24 03:34:04;;;;;;;38.17;28.92;;;14.80;99.90;;;;;;5027613;28;20114;-96
2022/09/24 03:36:31;;;;;;;37.25;29.38;;;13.80;99.90;;;;;;5010018;28;20124;-96
2022/09/24 03:38:57;;;;;;;36.35;26.42;;;14.10;99.90;;;;;;5000661;28;20038;-96
2022/09/24 03:41:27;;;;;;;35.30;29.95;;;14.40;99.90;;;;;;5002443;28;20041;-95
2022/09/24 03:43:53;;;;;;;32.95;27.67;;;14.00;99.90;;;;;;5031383;28;20030;-96
2022/09/24 03:46:19;;;;;;;39.30;30.75;;;14.20;99.90;;;;;;5016656;28;20091;-96
2022/09/24 03:48:46;;;;;;;34.60;28.02;;;14.10;99.90;;;;;;4982608;28;20076;-91
2022/09/24 03:51:18;;;;;;;31.67;26.45;;;14.40;99.90;;;;;;5016040;28;20084;-94
2022/09/24 03:53:45;;;;;;;32.22;25.50;;;14.10;99.90;;;;;;5016087;28;20037;-95
2022/09/24 03:56:12;;;;;;;33.67;24.60;;;14.10;99.90;;;;;;5015054;28;20044;-94
2022/09/24 03:58:38;;;;;;;27.08;22.92;;;14.10;99.90;;;;;;5016507;28;20143;-95
2022/09/24 04:01:19;;;;;;;32.10;23.20;;;14.10;99.90;;;;;;5014107;28;20034;-95
2022/09/24 04:03:45;;;;;;;26.77;19.17;;;14.10;99.90;;;;;;5029686;28;20045;-95
2022/09/24 04:06:11;;;;;;;23.55;18.40;;;14.10;99.90;;;;;;5020076;28;20131;-95
2022/09/24 04:08:37;;;;;;;26.15;17.65;;;14.10;99.90;;;;;;5025901;28;20075;-94
2022/09/24 04:11:03;;;;;;;26.23;16.70;;;14.10;99.90;;;;;;5021837;28;20045;-95
2022/09/24 04:13:29;;;;;;;23.25;15.95;;;14.10;99.90;;;;;;5038240;28;20437;-95
2022/09/24 04:15:54;;;;;;;19.70;13.45;;;14.10;99.90;;;;;;5021919;28;20060;-96
2022/09/24 04:18:21;;;;;;;20.90;13.05;;;14.70;99.90;;;;;;5005060;28;20124;-95
2022/09/24 04:20:47;;;;;;;16.23;8.45;;;14.10;99.90;;;;;;5023388;28;20114;-95
2022/09/24 04:23:13;;;;;;;12.02;5.35;;;14.10;99.90;;;;;;5038762;28;20033;-96
2022/09/24 04:25:41;;;;;;;12.18;5.60;;;14.40;99.90;;;;;;5020991;28;20056;-96
2022/09/24 04:28:08;;;;;;;10.93;3.85;;;14.10;99.90;;;;;;5035496;28;20209;-95
2022/09/24 04:30:35;;;;;;;8.77;3.35;;;14.10;99.90;;;;;;5019111;28;20055;-95
2022/09/24 04:33:01;;;;;;;13.35;2.20;;;14.10;99.90;;;;;;5004156;28;20086;-95
2022/09/24 04:35:30;;;;;;;10.65;2.15;;;14.10;99.90;;;;;;5020817;28;20484;-95
2022/09/24 04:37:57;;;;;;;14.30;1.90;;;14.10;99.90;;;;;;5020185;28;20102;-94
2022/09/24 04:40:22;;;;;;;16.40;3.05;;;14.10;99.90;;;;;;5016299;28;20076;-93
2022/09/24 04:42:48;;;;;;;9.43;1.27;;;14.10;99.90;;;;;;4985247;28;20099;-96
2022/09/24 04:45:19;;;;;;;13.18;2.53;;;14.10;99.90;;;;;;5015212;28;20423;-95
2022/09/24 04:47:56;;;;;;;12.30;1.65;;;14.00;99.90;;;;;;5001589;28;20083;-96
2022/09/24 04:50:23;;;;;;;13.32;1.45;;;14.00;99.90;;;;;;5022365;28;20397;-96
2022/09/24 04:52:48;;;;;;;11.05;2.13;;;14.10;99.90;;;;;;5007563;28;20029;-94
2022/09/24 04:55:14;;;;;;;18.85;1.63;;;14.80;99.90;;;;;;5008279;28;20047;-95
2022/09/24 04:57:40;;;;;;;9.20;1.50;;;14.00;99.90;;;;;;5022354;28;20411;-94
2022/09/24 05:00:13;;;;;;;10.32;1.60;;;13.90;99.90;;;;;;5023104;28;20071;-94
2022/09/24 05:02:43;;;;;;;11.57;1.58;;;14.00;99.90;;;;;;5054709;28;20484;-96
2022/09/24 05:05:10;;;;;;;15.50;1.63;;;14.20;99.90;;;;;;5042158;28;20104;-95
2022/09/24 05:07:36;;;;;;;9.10;1.08;;;14.10;99.90;;;;;;5033716;28;20048;-96
2022/09/24 05:10:02;;;;;;;8.57;1.20;;;13.90;99.90;;;;;;5055376;28;20033;-96
2022/09/24 05:12:27;;;;;;;6.78;1.20;;;13.90;99.90;;;;;;5020601;28;20122;-96
2022/09/24 05:14:55;;;;;;;9.80;2.10;;;13.90;99.90;;;;;;5025783;28;20071;-94
2022/09/24 05:17:21;;;;;;;6.22;0.95;;;13.80;99.90;;;;;;5024935;28;20041;-96
2022/09/24 05:19:49;;;;;;;9.10;1.52;;;13.90;99.90;;;;;;5031702;28;20036;-95
2022/09/24 05:22:15;;;;;;;4.70;0.95;;;14.00;99.90;;;;;;5010434;28;20170;-96
2022/09/24 05:24:41;;;;;;;10.23;1.10;;;13.90;99.90;;;;;;5010256;28;20566;-96
2022/09/24 05:27:09;;;;;;;8.57;2.45;;;13.90;99.90;;;;;;5026986;28;20056;-96
2022/09/24 05:29:42;;;;;;;16.50;4.35;;;13.90;99.90;;;;;;5041329;28;20081;-96
2022/09/24 05:32:16;;;;;;;16.13;1.17;;;13.90;99.90;;;;;;5025612;28;20127;-96
2022/09/24 05:34:43;;;;;;;7.93;1.42;;;13.80;99.90;;;;;;5038654;28;20049;-92
2022/09/24 05:37:13;;;;;;;7.85;1.10;;;13.90;99.90;;;;;;5035655;28;20053;-96
2022/09/24 05:39:39;;;;;;;9.43;1.83;;;13.90;99.90;;;;;;5052585;28;20129;-96
2022/09/24 05:42:06;;;;;;;10.60;1.10;;;13.90;99.90;;;;;;5035524;28;20045;-96
2022/09/24 05:44:36;;;;;;;6.97;1.15;;;13.90;99.90;;;;;;5022316;28;20033;-96
2022/09/24 05:47:02;;;;;;;14.05;1.85;;;13.90;99.90;;;;;;5035145;28;20037;-95
2022/09/24 05:49:27;;;;;;;11.15;2.00;;;13.90;99.90;;;;;;5032033;28;20041;-96
2022/09/24 05:51:53;;;;;;;22.83;1.52;;;13.90;99.90;;;;;;5018911;28;20045;-96
2022/09/24 05:54:19;;;;;;;11.20;1.70;;;13.90;99.90;;;;;;5019061;28;20041;-96
2022/09/24 05:56:45;;;;;;;14.60;1.40;;;14.30;99.90;;;;;;5016457;28;20516;-92
2022/09/24 05:59:20;;;;;;;10.48;1.23;;;13.90;99.90;;;;;;5069638;28;20068;-96
2022/09/24 06:01:46;;;;;;;9.82;2.25;;;13.90;99.90;;;;;;5024206;28;20070;-96
2022/09/24 06:04:13;;;;;;;20.73;3.10;;;13.90;99.90;;;;;;5060341;28;20017;-96
2022/09/24 06:06:44;;;;;;;12.13;1.50;;;13.90;99.90;;;;;;5028068;28;20160;-96
2022/09/24 06:09:10;;;;;;;12.95;1.40;;;14.00;99.90;;;;;;5060842;28;20028;-91
2022/09/24 06:11:39;;;;;;;12.73;1.70;;;14.00;99.90;;;;;;5077214;28;20049;-96
2022/09/24 06:14:07;;;;;;;9.98;1.85;;;14.00;99.90;;;;;;5041626;28;20061;-96
2022/09/24 06:16:35;;;;;;;11.77;2.22;;;14.00;99.90;;;;;;5043465;28;20048;-93
2022/09/24 06:19:01;;;;;;;19.52;2.90;;;14.00;99.90;;;;;;5020170;28;20480;-96
2022/09/24 06:21:27;;;;;;;13.30;1.90;;;14.00;99.90;;;;;;5032720;28;20041;-96
2022/09/24 06:23:56;;;;;;;13.38;3.15;;;14.10;99.90;;;;;;5056810;28;20134;-96
2022/09/24 06:26:28;;;;;;;14.82;2.30;;;14.00;99.90;;;;;;5056795;28;20063;-96
2022/09/24 06:28:53;;;;;;;13.23;3.08;;;14.00;99.90;;;;;;5024702;28;20061;-95
2022/09/24 06:31:19;;;;;;;10.57;1.33;;;14.10;99.90;;;;;;5027620;28;20049;-96
2022/09/24 06:33:45;;;;;;;14.35;1.52;;;14.10;99.90;;;;;;5030959;28;20067;-96
2022/09/24 06:36:11;;;;;;;11.57;1.58;;;14.10;99.90;;;;;;5046943;28;20120;-96
2022/09/24 06:38:39;;;;;;;20.55;2.03;;;14.10;99.90;;;;;;5031948;28;20017;-96
2022/09/24 06:41:08;;;;;;;11.93;1.90;;;14.10;99.90;;;;;;5028894;28;20060;-96
2022/09/24 06:43:34;;;;;;;17.05;1.73;;;14.10;99.90;;;;;;5006937;28;20037;-96
2022/09/24 06:46:00;;;;;;;9.55;1.60;;;14.10;99.90;;;;;;5021496;28;20566;-94
2022/09/24 06:48:27;;;;;;;16.27;1.95;;;14.20;99.90;;;;;;5028065;28;20524;-96
2022/09/24 06:50:55;;;;;;;16.02;1.95;;;14.20;99.90;;;;;;5046392;28;20053;-96
2022/09/24 06:53:23;;;;;;;8.77;1.50;;;14.20;99.90;;;;;;5042718;28;20041;-96
2022/09/24 06:55:49;;;;;;;11.85;1.75;;;14.20;99.90;;;;;;5044755;28;20033;-96
2022/09/24 06:58:18;;;;;;;18.25;1.88;;;14.20;99.90;;;;;;5018423;28;20043;-96
2022/09/24 07:00:53;;;;;;;13.32;1.80;;;14.30;99.90;;;;;;5024378;28;20036;-91
2022/09/24 07:03:20;;;;;;;10.32;1.63;;;14.30;99.90;;;;;;5016574;28;20458;-92
2022/09/24 07:05:45;;;;;;;13.65;1.83;;;14.20;99.90;;;;;;5032661;28;20037;-94
2022/09/24 07:08:11;;;;;;;14.10;1.88;;;14.20;99.90;;;;;;5033496;28;20045;-94
2022/09/24 07:10:41;;;;;;;12.43;2.25;;;14.30;99.90;;;;;;5000641;28;20052;-89
2022/09/24 07:13:07;;;;;;;12.55;1.52;;;14.30;99.90;;;;;;5017557;28;20100;-88
2022/09/24 07:15:32;;;;;;;8.65;1.33;;;14.40;99.90;;;;;;5035760;28;20083;-94
2022/09/24 07:17:58;;;;;;;11.35;1.67;;;14.40;99.90;;;;;;4986721;28;20427;-95
2022/09/24 07:20:27;;;;;;;16.08;2.28;;;14.40;99.90;;;;;;5019589;28;20141;-94
2022/09/24 07:22:53;;;;;;;14.02;2.05;;;14.40;99.90;;;;;;5002059;28;20055;-95
2022/09/24 07:25:19;;;;;;;8.93;1.55;;;14.40;99.90;;;;;;5021040;28;20067;-93
2022/09/24 07:27:45;;;;;;;9.90;1.20;;;14.50;99.90;;;;;;5005670;28;20053;-96
2022/09/24 07:30:14;;;;;;;8.70;1.40;;;14.50;99.90;;;;;;5020782;28;20040;-96
2022/09/24 07:32:39;;;;;;;11.35;1.83;;;14.50;99.90;;;;;;5020140;28;20577;-93
2022/09/24 07:35:05;;;;;;;9.05;0.80;;;14.30;99.90;;;;;;4983723;28;20510;-94
2022/09/24 07:37:32;;;;;;;5.80;1.02;;;14.50;99.90;;;;;;4983325;28;20061;-93
2022/09/24 07:39:58;;;;;;;3.92;0.75;;;14.50;99.90;;;;;;4983781;28;20041;-93
2022/09/24 07:42:24;;;;;;;10.27;1.27;;;14.90;99.90;;;;;;4999054;28;20167;-93
2022/09/24 07:44:50;;;;;;;4.82;0.88;;;14.40;99.90;;;;;;4982522;28;20625;-89
2022/09/24 07:47:16;;;;;;;3.25;0.55;;;14.40;99.90;;;;;;4999368;28;20542;-92
2022/09/24 07:49:43;;;;;;;5.07;0.80;;;14.40;99.90;;;;;;4998358;28;20048;-91
2022/09/24 07:52:10;;;;;;;5.82;1.85;;;14.40;99.90;;;;;;4999123;28;20438;-94
2022/09/24 07:54:35;;;;;;;3.40;0.65;;;14.40;99.90;;;;;;4984414;28;20110;-95
2022/09/24 07:57:01;;;;;;;6.63;1.42;;;14.40;99.90;;;;;;4999813;28;20045;-95
2022/09/24 07:59:28;;;;;;;3.72;0.95;;;14.40;99.90;;;;;;4999848;28;20760;-95
2022/09/24 08:01:53;;;;;;;4.78;1.02;;;15.10;99.90;;;;;;4999619;28;20045;-92
2022/09/24 08:04:19;;;;;;;5.22;0.82;;;15.30;99.90;;;;;;4999575;28;20151;-93
2022/09/24 08:06:45;;;;;;;5.57;1.00;;;14.40;99.90;;;;;;4999446;28;20075;-93
2022/09/24 08:09:10;;;;;;;5.72;0.80;;;14.50;99.90;;;;;;4991753;28;20052;-94
2022/09/24 08:11:36;;;;;;;10.55;1.05;;;15.20;99.90;;;;;;5007684;28;20037;-93
2022/09/24 08:14:02;;;;;;;14.23;2.25;;;14.60;99.90;;;;;;5008112;28;20393;-92
2022/09/24 08:16:28;;;;;;;10.75;1.67;;;14.60;99.90;;;;;;5007884;28;20052;-93
2022/09/24 08:18:54;;;;;;;7.22;1.10;;;14.70;99.90;;;;;;5004904;28;20070;-89
2022/09/24 08:21:21;;;;;;;15.65;1.75;;;15.00;99.90;;;;;;4987309;28;20045;-93
2022/09/24 08:23:46;;;;;;;11.15;1.33;;;15.70;99.90;;;;;;4999348;28;20052;-92
2022/09/24 08:26:13;;;;;;;8.05;1.50;;;14.80;99.90;;;;;;5016577;28;20029;-93
2022/09/24 08:28:40;;;;;;;10.68;1.77;;;14.90;99.90;;;;;;5015365;28;20052;-94
2022/09/24 08:31:10;;;;;;;12.40;3.72;;;15.00;99.90;;;;;;4982939;28;20052;-92
2022/09/24 08:33:36;;;;;;;13.05;1.85;;;14.90;99.90;;;;;;5013971;28;20049;-95
2022/09/24 08:36:03;;;;;;;8.65;1.40;;;15.90;99.90;;;;;;4998730;28;20044;-88
2022/09/24 08:38:29;;;;;;;16.08;2.33;;;15.00;99.90;;;;;;5012993;28;20202;-91
2022/09/24 08:41:14;;;;;;;12.52;1.42;;;15.00;99.90;;;;;;5012700;28;20172;-92
2022/09/24 08:43:48;;;;;;;19.50;1.95;;;15.00;99.90;;;;;;5013387;28;20384;-90
2022/09/24 08:49:19;;;;;;;7.88;1.17;;;15.00;99.90;;;;;;5031159;28;20044;-94
2022/09/24 08:51:57;;;;;;;17.25;3.35;;;15.00;99.90;;;;;;5014284;28;20052;-94
2022/09/24 08:54:25;;;;;;;16.75;2.00;;;15.50;99.90;;;;;;5015356;28;20041;-95
2022/09/24 08:56:56;;;;;;;6.13;0.80;;;15.00;99.90;;;;;;5015957;28;20070;-96
2022/09/24 08:59:42;;;;;;;11.98;2.45;;;15.00;99.90;;;;;;5001409;28;20037;-95
2022/09/24 09:02:28;;;;;;;9.98;2.33;;;15.10;99.90;;;;;;5032603;28;20135;-91
2022/09/24 09:05:14;;;;;;;12.60;2.42;;;15.10;99.90;;;;;;5013494;28;20049;-87
2022/09/24 09:07:48;;;;;;;10.57;1.27;;;15.20;99.90;;;;;;5013574;28;20500;-84
2022/09/24 09:10:26;;;;;;;7.57;1.10;;;15.30;99.90;;;;;;5046649;28;20053;-88
2022/09/24 09:13:20;;;;;;;7.03;1.00;;;15.40;99.90;;;;;;5028340;28;20045;-86
2022/09/24 09:16:00;;;;;;;11.75;1.00;;;15.30;99.90;;;;;;5027966;28;20045;-91
2022/09/24 09:18:33;;;;;;;7.68;0.77;;;15.20;99.90;;;;;;5028335;28;20048;-88
2022/09/24 09:21:22;;;;;;;7.85;1.20;;;15.10;99.90;;;;;;5011778;28;20045;-86
2022/09/24 09:23:50;;;;;;;9.85;1.52;;;15.10;99.90;;;;;;5028357;28;20056;-86
2022/09/24 09:26:17;;;;;;;7.68;1.08;;;15.10;99.90;;;;;;5012656;28;20053;-87
2022/09/24 09:28:45;;;;;;;5.28;0.77;;;15.10;99.90;;;;;;5011864;28;20084;-86
2022/09/24 09:31:20;;;;;;;9.60;1.13;;;15.20;99.90;;;;;;5012740;28;20048;-85
2022/09/24 09:34:04;;;;;;;7.22;1.63;;;15.10;99.90;;;;;;5012782;28;20079;-85
2022/09/24 09:36:36;;;;;;;5.50;0.95;;;15.10;99.90;;;;;;5029784;28;20061;-89
2022/09/24 09:39:02;;;;;;;3.58;1.10;;;15.00;99.90;;;;;;5029854;28;20091;-88
2022/09/24 09:41:34;;;;;;;19.08;10.73;;;15.00;99.90;;;;;;5013188;28;20483;-89
2022/09/24 09:44:09;;;;;;;;;;;15.00;99.90;;;;;;5030483;28;20131;-92
2022/09/24 09:46:39;;;;;;;9.82;0.82;;;14.90;99.90;;;;;;5013490;28;19951;-91
2022/09/24 09:49:06;;;;;;;5.60;0.90;;;15.80;99.90;;;;;;5030266;28;20041;-90
2022/09/24 09:51:40;;;;;;;5.72;0.80;;;15.20;99.90;;;;;;5029291;28;20049;-92
2022/09/24 09:54:05;;;;;;;8.50;1.02;;;15.00;99.90;;;;;;5028599;28;20080;-87
2022/09/24 09:56:40;;;;;;;2.42;0.38;;;15.00;99.90;;;;;;4979680;28;20103;-87
2022/09/24 09:59:17;;;;;;;8.02;1.00;;;15.10;99.90;;;;;;5012329;28;20080;-93
2022/09/24 10:01:46;;;;;;;5.65;0.75;;;15.50;99.90;;;;;;5015636;28;20049;-95
2022/09/24 10:04:36;;;;;;;1.90;0.60;;;15.10;99.90;;;;;;5014619;28;20049;-92
2022/09/24 10:07:16;;;;;;;5.07;0.70;;;15.10;99.90;;;;;;5012792;28;20072;-93
2022/09/24 10:09:43;;;;;;;5.82;1.00;;;15.20;99.90;;;;;;5032058;28;20033;-96
2022/09/24 10:12:23;;;;;;;6.95;0.95;;;15.20;99.90;;;;;;5017332;28;20033;-88
2022/09/24 10:15:15;;;;;;;7.70;1.05;;;15.30;99.90;;;;;;5025432;28;20045;-92
2022/09/24 10:17:42;;;;;;;8.15;1.50;;;15.30;99.90;;;;;;5041935;28;20051;-95
2022/09/24 10:20:22;;;;;;;5.85;1.73;;;15.30;99.90;;;;;;5040772;28;20041;-91
2022/09/24 10:22:55;;;;;;;5.10;1.40;;;15.20;99.90;;;;;;5043848;28;20057;-93
2022/09/24 10:25:27;;;;;;;6.03;0.98;;;15.20;99.90;;;;;;5024130;28;20048;-88
2022/09/24 10:31:10;;;;;;;7.05;1.90;;;15.20;99.90;;;;;;5038926;28;20045;-93
2022/09/24 10:33:38;;;;;;;6.80;0.80;;;15.30;99.90;;;;;;5018800;28;20048;-92
2022/09/24 10:36:07;;;;;;;9.52;2.28;;;15.30;99.90;;;;;;5019086;28;20504;-89
2022/09/24 10:38:33;;;;;;;11.60;1.65;;;15.40;99.90;;;;;;5001002;28;20057;-90
2022/09/24 10:41:00;;;;;;;7.72;0.90;;;15.50;99.90;;;;;;5018856;28;20040;-92
2022/09/24 10:43:26;;;;;;;6.60;0.98;;;15.50;99.90;;;;;;5024051;28;20071;-96
2022/09/24 10:46:39;;;;;;;8.10;2.08;;;15.60;99.90;;;;;;5042484;28;20111;-96
2022/09/24 10:49:24;;;;;;;7.40;1.27;;;15.60;99.90;;;;;;5021867;28;20072;-90
2022/09/24 10:52:03;;;;;;;6.60;0.65;;;15.60;99.90;;;;;;5033684;28;20057;-84
2022/09/24 10:55:00;;;;;;;6.10;0.70;;;15.50;99.90;;;;;;5018918;28;20086;-91
2022/09/24 10:57:55;;;;;;;2.42;0.40;;;15.50;99.90;;;;;;5019013;28;20401;-87
2022/09/24 11:00:23;;;;;;;8.85;0.85;;;15.50;99.90;;;;;;4983663;28;20060;-88
2022/09/24 11:03:07;;;;;;;8.48;0.80;;;15.50;99.90;;;;;;5018462;28;20539;-89
2022/09/24 11:05:39;;;;;;;5.28;0.80;;;15.50;99.90;;;;;;5032049;28;20053;-88
2022/09/24 11:08:27;;;;;;;6.28;0.85;;;15.50;99.90;;;;;;5015628;28;20048;-89
2022/09/24 11:11:19;;;;;;;4.53;1.65;;;15.50;99.90;;;;;;5016526;28;20045;-88
2022/09/24 11:13:59;;;;;;;7.10;0.80;;;15.50;99.90;;;;;;5016273;28;20411;-89
2022/09/24 11:16:57;;;;;;;2.65;0.80;;;15.50;99.90;;;;;;5016595;28;20088;-89
2022/09/24 11:19:51;;;;;;;6.88;0.88;;;15.40;99.90;;;;;;5033906;28;20538;-87
2022/09/24 11:22:32;;;;;;;4.75;0.70;;;15.30;99.90;;;;;;5032057;28;20136;-87
2022/09/24 11:25:32;;;;;;;7.35;1.15;;;15.40;99.90;;;;;;5032243;28;20041;-87
2022/09/24 11:28:12;;;;;;;4.88;0.57;;;15.40;99.90;;;;;;5033525;28;20045;-88
2022/09/24 11:31:10;;;;;;;9.10;0.90;;;15.40;99.90;;;;;;5032367;28;20535;-89
2022/09/24 11:33:52;;;;;;;5.68;0.80;;;15.30;99.90;;;;;;5016200;28;20634;-88
2022/09/24 11:36:35;;;;;;;4.57;0.52;;;15.20;99.90;;;;;;5017301;28;20033;-88
2022/09/24 11:39:23;;;;;;;4.15;0.93;;;15.20;99.90;;;;;;5031549;28;20048;-88
2022/09/24 11:41:49;;;;;;;5.55;0.73;;;15.20;99.90;;;;;;5016950;28;20078;-89
2022/09/24 11:44:53;;;;;;;4.85;1.05;;;14.60;99.90;;;;;;5016404;28;20048;-88
2022/09/24 11:47:45;;;;;;;5.38;0.82;;;15.10;99.90;;;;;;5030926;28;20037;-87
2022/09/24 11:50:20;;;;;;;5.95;0.55;;;15.10;99.90;;;;;;4999603;28;20472;-88
2022/09/24 11:53:32;;;;;;;4.05;0.80;;;15.20;99.90;;;;;;5015199;28;20052;-88
2022/09/24 11:56:17;;;;;;;5.47;0.60;;;15.10;99.90;;;;;;5011469;28;20071;-88
2022/09/24 11:58:59;;;;;;;4.43;1.00;;;15.20;99.90;;;;;;5033622;28;20041;-88
2022/09/24 12:01:34;;;;;;;13.35;1.13;;;15.10;99.90;;;;;;5016340;28;20041;-86
2022/09/24 12:04:20;;;;;;;4.50;0.93;;;15.00;99.90;;;;;;5015236;28;20110;-87
2022/09/24 12:06:56;;;;;;;8.00;0.80;;;15.00;99.90;;;;;;5033422;28;20381;-88
2022/09/24 12:09:50;;;;;;;6.03;0.90;;;15.00;99.90;;;;;;5030505;28;20037;-87
2022/09/24 12:12:33;;;;;;;9.02;1.10;;;15.00;99.90;;;;;;5015169;28;20094;-88
2022/09/24 12:15:19;;;;;;;5.32;0.80;;;15.00;99.90;;;;;;5033119;28;20408;-87
2022/09/24 12:17:53;;;;;;;7.20;0.65;;;14.90;99.90;;;;;;5031097;28;20047;-87
2022/09/24 12:20:44;;;;;;;12.02;0.80;;;15.00;99.90;;;;;;5016382;28;20075;-88
2022/09/24 12:23:14;;;;;;;9.05;0.90;;;15.00;99.90;;;;;;5032679;28;20114;-87
2022/09/24 12:25:44;;;;;;;7.93;1.10;;;15.00;99.90;;;;;;5031536;28;20037;-87
2022/09/24 12:32:53;;;;;;;6.55;0.95;;;15.00;99.90;;;;;;5033346;28;20041;-88
2022/09/24 12:34:25;;;;;;;5.25;0.80;;;15.00;99.90;;;;;;5030922;28;20053;-88
2022/09/24 12:37:16;;;;;;;2.30;0.55;;;15.00;99.90;;;;;;5015339;28;20053;-88
2022/09/24 12:39:49;;;;;;;5.45;0.50;;;15.00;99.90;;;;;;5031175;28;20090;-89
2022/09/24 12:42:19;;;;;;;3.03;0.80;;;15.00;99.90;;;;;;5014710;28;20052;-87
2022/09/24 12:44:52;;;;;;;3.35;0.65;;;14.90;99.90;;;;;;5032230;28;20079;-88
2022/09/24 12:47:22;;;;;;;;;;;14.90;99.90;;;;;;5014456;28;20565;-87
2022/09/24 12:49:57;;;;;;;6.78;0.60;;;14.90;99.90;;;;;;5031802;28;19942;-87
2022/09/24 12:52:42;;;;;;;6.57;0.80;;;14.80;99.90;;;;;;5013079;28;20102;-87
2022/09/24 12:55:26;;;;;;;9.32;0.65;;;14.80;99.90;;;;;;5030223;28;20068;-87
2022/09/24 12:58:02;;;;;;;4.25;0.70;;;14.80;99.90;;;;;;5031299;28;20454;-86
2022/09/24 13:00:36;;;;;;;6.32;1.45;;;14.70;99.90;;;;;;5013267;28;20048;-87
2022/09/24 13:03:04;;;;;;;4.07;0.65;;;14.20;99.90;;;;;;5031646;28;20098;-87
2022/09/24 13:05:46;;;;;;;3.88;0.70;;;14.60;99.90;;;;;;5015773;28;20045;-90
2022/09/24 13:08:24;;;;;;;3.25;0.50;;;14.60;99.90;;;;;;5015619;28;20049;-90
2022/09/24 13:10:55;;;;;;;11.07;0.60;;;15.60;99.90;;;;;;5016603;28;20606;-93
2022/09/24 13:13:32;;;;;;;5.05;0.75;;;14.50;99.90;;;;;;5035840;28;20037;-93
2022/09/24 13:16:04;;;;;;;3.05;0.30;;;14.50;99.90;;;;;;5018632;28;20095;-95
2022/09/24 13:18:34;;;;;;;3.03;0.32;;;14.50;99.90;;;;;;5018136;28;20044;-96